sensor_id;sensor_type;location;lat;lon;timestamp;temperature;humidity
81210;DHT22;70685;52.496;13.420;2023-07-24T00:00:39;20.90;56.00
81210;DHT22;70685;52.496;13.420;2023-07-24T00:03:06;20.90;56.10
81210;DHT22;70685;52.496;13.420;2023-07-24T00:05:34;20.90;56.00
81210;DHT22;70685;52.496;13.420;2023-07-24T00:08:00;20.90;55.90
81210;DHT22;70685;52.496;13.420;2023-07-24T00:10:25;20.90;55.60
81210;DHT22;70685;52.496;13.420;2023-07-24T00:12:53;20.90;55.60
81210;DHT22;70685;52.496;13.420;2023-07-24T00:15:19;20.90;55.30
81210;DHT22;70685;52.496;13.420;2023-07-24T00:17:47;20.90;55.30
81210;DHT22;70685;52.496;13.420;2023-07-24T00:20:15;21.00;55.00
81210;DHT22;70685;52.496;13.420;2023-07-24T00:22:40;21.00;54.60
81210;DHT22;70685;52.496;13.420;2023-07-24T00:25:09;20.90;54.80
81210;DHT22;70685;52.496;13.420;2023-07-24T00:27:37;20.90;54.70
81210;DHT22;70685;52.496;13.420;2023-07-24T00:30:05;20.90;54.80
81210;DHT22;70685;52.496;13.420;2023-07-24T00:32:33;20.90;54.40
81210;DHT22;70685;52.496;13.420;2023-07-24T00:34:59;20.90;54.30
81210;DHT22;70685;52.496;13.420;2023-07-24T00:37:24;20.90;54.00
81210;DHT22;70685;52.496;13.420;2023-07-24T00:39:50;20.90;54.10
81210;DHT22;70685;52.496;13.420;2023-07-24T00:42:16;20.90;54.10
81210;DHT22;70685;52.496;13.420;2023-07-24T00:44:41;20.90;53.80
81210;DHT22;70685;52.496;13.420;2023-07-24T00:47:07;20.80;54.20
81210;DHT22;70685;52.496;13.420;2023-07-24T00:49:33;20.90;54.10
81210;DHT22;70685;52.496;13.420;2023-07-24T00:52:02;20.90;54.30
81210;DHT22;70685;52.496;13.420;2023-07-24T00:54:29;20.90;53.80
81210;DHT22;70685;52.496;13.420;2023-07-24T00:57:01;20.80;53.90
81210;DHT22;70685;52.496;13.420;2023-07-24T00:59:26;20.80;54.10
81210;DHT22;70685;52.496;13.420;2023-07-24T01:01:55;20.90;53.90
81210;DHT22;70685;52.496;13.420;2023-07-24T01:04:25;20.80;54.10
81210;DHT22;70685;52.496;13.420;2023-07-24T01:06:55;20.80;54.40
81210;DHT22;70685;52.496;13.420;2023-07-24T01:09:21;20.70;54.60
81210;DHT22;70685;52.496;13.420;2023-07-24T01:12:02;20.60;54.80
81210;DHT22;70685;52.496;13.420;2023-07-24T01:14:40;20.50;55.00
81210;DHT22;70685;52.496;13.420;2023-07-24T01:17:10;20.40;55.50
81210;DHT22;70685;52.496;13.420;2023-07-24T01:19:50;20.30;56.00
81210;DHT22;70685;52.496;13.420;2023-07-24T01:25:18;20.30;56.20
81210;DHT22;70685;52.496;13.420;2023-07-24T01:27:46;20.20;56.20
81210;DHT22;70685;52.496;13.420;2023-07-24T01:30:16;20.30;56.40
81210;DHT22;70685;52.496;13.420;2023-07-24T01:32:44;20.30;56.40
81210;DHT22;70685;52.496;13.420;2023-07-24T01:35:10;20.30;56.30
81210;DHT22;70685;52.496;13.420;2023-07-24T01:37:37;20.40;56.30
81210;DHT22;70685;52.496;13.420;2023-07-24T01:40:08;20.40;56.40
81210;DHT22;70685;52.496;13.420;2023-07-24T01:42:34;20.40;56.50
81210;DHT22;70685;52.496;13.420;2023-07-24T01:45:03;20.40;56.40
81210;DHT22;70685;52.496;13.420;2023-07-24T01:47:29;20.40;56.60
81210;DHT22;70685;52.496;13.420;2023-07-24T01:49:56;20.40;56.70
81210;DHT22;70685;52.496;13.420;2023-07-24T01:52:22;20.40;57.00
81210;DHT22;70685;52.496;13.420;2023-07-24T01:54:47;20.40;57.10
81210;DHT22;70685;52.496;13.420;2023-07-24T01:57:13;20.40;57.20
81210;DHT22;70685;52.496;13.420;2023-07-24T01:59:39;20.40;56.80
81210;DHT22;70685;52.496;13.420;2023-07-24T02:02:05;20.50;56.70
81210;DHT22;70685;52.496;13.420;2023-07-24T02:04:33;20.60;56.40
81210;DHT22;70685;52.496;13.420;2023-07-24T02:06:58;20.50;56.30
81210;DHT22;70685;52.496;13.420;2023-07-24T02:09:26;20.40;56.40
81210;DHT22;70685;52.496;13.420;2023-07-24T02:11:52;20.40;57.40
81210;DHT22;70685;52.496;13.420;2023-07-24T02:14:20;20.40;56.50
81210;DHT22;70685;52.496;13.420;2023-07-24T02:16:46;20.40;56.70
81210;DHT22;70685;52.496;13.420;2023-07-24T02:19:12;20.40;56.10
81210;DHT22;70685;52.496;13.420;2023-07-24T02:21:37;20.40;56.10
81210;DHT22;70685;52.496;13.420;2023-07-24T02:24:03;20.40;56.20
81210;DHT22;70685;52.496;13.420;2023-07-24T02:26:31;20.40;56.50
81210;DHT22;70685;52.496;13.420;2023-07-24T02:28:57;20.40;56.20
81210;DHT22;70685;52.496;13.420;2023-07-24T02:31:22;20.50;55.90
81210;DHT22;70685;52.496;13.420;2023-07-24T02:33:48;20.50;56.00
81210;DHT22;70685;52.496;13.420;2023-07-24T02:36:14;20.50;56.00
81210;DHT22;70685;52.496;13.420;2023-07-24T02:38:39;20.60;55.90
81210;DHT22;70685;52.496;13.420;2023-07-24T02:41:05;20.70;56.00
81210;DHT22;70685;52.496;13.420;2023-07-24T02:43:31;20.60;56.20
81210;DHT22;70685;52.496;13.420;2023-07-24T02:46:02;20.60;56.30
81210;DHT22;70685;52.496;13.420;2023-07-24T02:48:28;20.70;56.60
81210;DHT22;70685;52.496;13.420;2023-07-24T02:50:53;20.60;57.00
81210;DHT22;70685;52.496;13.420;2023-07-24T02:53:19;20.70;57.00
81210;DHT22;70685;52.496;13.420;2023-07-24T02:55:47;20.60;57.30
81210;DHT22;70685;52.496;13.420;2023-07-24T02:58:15;20.60;57.60
81210;DHT22;70685;52.496;13.420;2023-07-24T03:00:43;20.60;57.70
81210;DHT22;70685;52.496;13.420;2023-07-24T03:03:09;20.70;57.60
81210;DHT22;70685;52.496;13.420;2023-07-24T03:05:34;20.70;57.90
81210;DHT22;70685;52.496;13.420;2023-07-24T03:08:00;20.80;57.60
81210;DHT22;70685;52.496;13.420;2023-07-24T03:10:26;20.90;57.50
81210;DHT22;70685;52.496;13.420;2023-07-24T03:12:54;20.80;57.80
81210;DHT22;70685;52.496;13.420;2023-07-24T03:15:22;20.90;57.80
81210;DHT22;70685;52.496;13.420;2023-07-24T03:17:47;20.90;57.80
81210;DHT22;70685;52.496;13.420;2023-07-24T03:20:18;20.90;57.80
81210;DHT22;70685;52.496;13.420;2023-07-24T03:22:46;20.90;57.90
81210;DHT22;70685;52.496;13.420;2023-07-24T03:25:17;20.90;59.20
81210;DHT22;70685;52.496;13.420;2023-07-24T03:27:42;20.80;58.60
81210;DHT22;70685;52.496;13.420;2023-07-24T03:30:10;20.90;58.50
81210;DHT22;70685;52.496;13.420;2023-07-24T03:32:38;20.90;58.50
81210;DHT22;70685;52.496;13.420;2023-07-24T03:35:07;20.90;58.60
81210;DHT22;70685;52.496;13.420;2023-07-24T03:37:35;20.90;58.90
81210;DHT22;70685;52.496;13.420;2023-07-24T03:40:01;20.90;58.90
81210;DHT22;70685;52.496;13.420;2023-07-24T03:42:28;21.00;58.80
81210;DHT22;70685;52.496;13.420;2023-07-24T03:44:55;21.00;60.60
81210;DHT22;70685;52.496;13.420;2023-07-24T03:47:23;20.90;60.60
81210;DHT22;70685;52.496;13.420;2023-07-24T03:49:49;20.70;61.20
81210;DHT22;70685;52.496;13.420;2023-07-24T03:52:15;20.70;61.20
81210;DHT22;70685;52.496;13.420;2023-07-24T03:54:52;20.60;61.40
81210;DHT22;70685;52.496;13.420;2023-07-24T03:57:20;20.70;61.40
81210;DHT22;70685;52.496;13.420;2023-07-24T03:59:48;20.70;61.50
81210;DHT22;70685;52.496;13.420;2023-07-24T04:02:14;20.70;61.70
81210;DHT22;70685;52.496;13.420;2023-07-24T04:04:42;20.70;62.50
81210;DHT22;70685;52.496;13.420;2023-07-24T04:07:07;20.70;62.70
81210;DHT22;70685;52.496;13.420;2023-07-24T04:09:33;20.60;63.50
81210;DHT22;70685;52.496;13.420;2023-07-24T04:11:58;20.50;64.40
81210;DHT22;70685;52.496;13.420;2023-07-24T04:14:24;20.40;64.70
81210;DHT22;70685;52.496;13.420;2023-07-24T04:16:50;20.20;65.10
81210;DHT22;70685;52.496;13.420;2023-07-24T04:19:15;20.20;65.70
81210;DHT22;70685;52.496;13.420;2023-07-24T04:21:41;20.20;65.40
81210;DHT22;70685;52.496;13.420;2023-07-24T04:24:07;20.20;65.80
81210;DHT22;70685;52.496;13.420;2023-07-24T04:26:50;20.20;65.30
81210;DHT22;70685;52.496;13.420;2023-07-24T04:29:16;20.30;65.30
81210;DHT22;70685;52.496;13.420;2023-07-24T04:31:42;20.40;65.10
81210;DHT22;70685;52.496;13.420;2023-07-24T04:34:07;20.50;64.80
81210;DHT22;70685;52.496;13.420;2023-07-24T04:36:33;20.60;64.50
81210;DHT22;70685;52.496;13.420;2023-07-24T04:38:58;20.70;64.20
81210;DHT22;70685;52.496;13.420;2023-07-24T04:41:24;20.70;64.20
81210;DHT22;70685;52.496;13.420;2023-07-24T04:43:50;20.70;64.00
81210;DHT22;70685;52.496;13.420;2023-07-24T04:46:15;20.80;64.00
81210;DHT22;70685;52.496;13.420;2023-07-24T04:48:41;20.90;64.00
81210;DHT22;70685;52.496;13.420;2023-07-24T04:51:06;21.00;63.10
81210;DHT22;70685;52.496;13.420;2023-07-24T04:53:34;21.20;62.90
81210;DHT22;70685;52.496;13.420;2023-07-24T04:56:03;21.40;62.00
81210;DHT22;70685;52.496;13.420;2023-07-24T04:58:28;21.70;61.60
81210;DHT22;70685;52.496;13.420;2023-07-24T05:00:54;21.80;60.70
81210;DHT22;70685;52.496;13.420;2023-07-24T05:03:19;21.90;60.40
81210;DHT22;70685;52.496;13.420;2023-07-24T05:05:48;22.00;59.90
81210;DHT22;70685;52.496;13.420;2023-07-24T05:08:18;22.10;60.10
81210;DHT22;70685;52.496;13.420;2023-07-24T05:10:47;22.10;59.50
81210;DHT22;70685;52.496;13.420;2023-07-24T05:13:12;22.20;59.80
81210;DHT22;70685;52.496;13.420;2023-07-24T05:15:38;22.20;59.60
81210;DHT22;70685;52.496;13.420;2023-07-24T05:18:03;22.30;59.50
81210;DHT22;70685;52.496;13.420;2023-07-24T05:20:29;22.40;59.30
81210;DHT22;70685;52.496;13.420;2023-07-24T05:22:55;22.70;58.30
81210;DHT22;70685;52.496;13.420;2023-07-24T05:25:23;23.10;57.50
81210;DHT22;70685;52.496;13.420;2023-07-24T05:27:53;23.40;56.40
81210;DHT22;70685;52.496;13.420;2023-07-24T05:30:18;23.70;55.80
81210;DHT22;70685;52.496;13.420;2023-07-24T05:32:51;23.90;54.90
81210;DHT22;70685;52.496;13.420;2023-07-24T05:35:17;24.10;54.00
81210;DHT22;70685;52.496;13.420;2023-07-24T05:37:42;24.30;53.40
81210;DHT22;70685;52.496;13.420;2023-07-24T05:40:08;24.30;53.10
81210;DHT22;70685;52.496;13.420;2023-07-24T05:42:34;24.20;53.00
81210;DHT22;70685;52.496;13.420;2023-07-24T05:45:07;24.20;53.50
81210;DHT22;70685;52.496;13.420;2023-07-24T05:47:33;24.90;51.80
81210;DHT22;70685;52.496;13.420;2023-07-24T05:49:58;26.40;48.40
81210;DHT22;70685;52.496;13.420;2023-07-24T05:52:26;27.90;44.50
81210;DHT22;70685;52.496;13.420;2023-07-24T05:54:52;28.70;42.40
81210;DHT22;70685;52.496;13.420;2023-07-24T05:57:18;29.30;40.70
81210;DHT22;70685;52.496;13.420;2023-07-24T05:59:43;29.60;40.40
81210;DHT22;70685;52.496;13.420;2023-07-24T06:02:09;30.20;39.00
81210;DHT22;70685;52.496;13.420;2023-07-24T06:04:35;30.80;38.30
81210;DHT22;70685;52.496;13.420;2023-07-24T06:07:01;31.80;36.60
81210;DHT22;70685;52.496;13.420;2023-07-24T06:09:27;32.30;35.00
81210;DHT22;70685;52.496;13.420;2023-07-24T06:11:52;32.60;34.40
81210;DHT22;70685;52.496;13.420;2023-07-24T06:14:18;33.50;34.00
81210;DHT22;70685;52.496;13.420;2023-07-24T06:16:46;34.10;32.60
81210;DHT22;70685;52.496;13.420;2023-07-24T06:19:14;34.10;31.70
81210;DHT22;70685;52.496;13.420;2023-07-24T06:21:42;33.70;31.90
81210;DHT22;70685;52.496;13.420;2023-07-24T06:24:10;33.50;32.40
81210;DHT22;70685;52.496;13.420;2023-07-24T06:26:38;33.30;32.00
81210;DHT22;70685;52.496;13.420;2023-07-24T06:29:04;33.30;32.40
81210;DHT22;70685;52.496;13.420;2023-07-24T06:31:32;33.50;32.10
81210;DHT22;70685;52.496;13.420;2023-07-24T06:33:57;33.40;31.90
81210;DHT22;70685;52.496;13.420;2023-07-24T06:36:23;33.70;31.80
81210;DHT22;70685;52.496;13.420;2023-07-24T06:38:49;34.50;30.90
81210;DHT22;70685;52.496;13.420;2023-07-24T06:41:17;35.00;30.10
81210;DHT22;70685;52.496;13.420;2023-07-24T06:43:45;35.10;29.60
81210;DHT22;70685;52.496;13.420;2023-07-24T06:46:10;35.00;29.70
81210;DHT22;70685;52.496;13.420;2023-07-24T06:48:36;35.20;29.40
81210;DHT22;70685;52.496;13.420;2023-07-24T06:51:01;35.60;29.10
81210;DHT22;70685;52.496;13.420;2023-07-24T06:53:27;35.50;28.70
81210;DHT22;70685;52.496;13.420;2023-07-24T06:55:53;35.00;29.20
81210;DHT22;70685;52.496;13.420;2023-07-24T06:58:20;34.90;29.40
81210;DHT22;70685;52.496;13.420;2023-07-24T07:00:48;34.70;29.50
81210;DHT22;70685;52.496;13.420;2023-07-24T07:03:14;34.60;29.30
81210;DHT22;70685;52.496;13.420;2023-07-24T07:05:42;34.50;29.80
81210;DHT22;70685;52.496;13.420;2023-07-24T07:08:07;33.90;30.20
81210;DHT22;70685;52.496;13.420;2023-07-24T07:10:36;33.80;30.10
81210;DHT22;70685;52.496;13.420;2023-07-24T07:13:01;34.40;29.90
81210;DHT22;70685;52.496;13.420;2023-07-24T07:15:29;34.80;29.40
81210;DHT22;70685;52.496;13.420;2023-07-24T07:17:54;34.90;28.90
81210;DHT22;70685;52.496;13.420;2023-07-24T07:20:20;35.60;28.80
81210;DHT22;70685;52.496;13.420;2023-07-24T07:22:46;35.60;28.80
81210;DHT22;70685;52.496;13.420;2023-07-24T07:25:11;34.90;29.00
81210;DHT22;70685;52.496;13.420;2023-07-24T07:27:39;34.90;29.10
81210;DHT22;70685;52.496;13.420;2023-07-24T07:30:07;35.30;28.40
81210;DHT22;70685;52.496;13.420;2023-07-24T07:32:35;35.70;28.00
81210;DHT22;70685;52.496;13.420;2023-07-24T07:35:01;35.90;28.10
81210;DHT22;70685;52.496;13.420;2023-07-24T07:37:28;36.30;27.50
81210;DHT22;70685;52.496;13.420;2023-07-24T07:39:54;35.60;27.70
81210;DHT22;70685;52.496;13.420;2023-07-24T07:42:19;34.70;28.60
81210;DHT22;70685;52.496;13.420;2023-07-24T07:44:46;34.80;28.90
81210;DHT22;70685;52.496;13.420;2023-07-24T07:47:11;34.80;28.40
81210;DHT22;70685;52.496;13.420;2023-07-24T07:49:37;34.80;28.70
81210;DHT22;70685;52.496;13.420;2023-07-24T07:52:06;34.30;28.90
81210;DHT22;70685;52.496;13.420;2023-07-24T07:54:34;33.80;29.40
81210;DHT22;70685;52.496;13.420;2023-07-24T07:57:04;34.00;29.40
81210;DHT22;70685;52.496;13.420;2023-07-24T07:59:29;34.40;29.20
81210;DHT22;70685;52.496;13.420;2023-07-24T08:01:55;34.60;29.20
81210;DHT22;70685;52.496;13.420;2023-07-24T08:04:20;34.90;28.90
81210;DHT22;70685;52.496;13.420;2023-07-24T08:06:49;35.20;28.40
81210;DHT22;70685;52.496;13.420;2023-07-24T08:09:20;34.80;28.80
81210;DHT22;70685;52.496;13.420;2023-07-24T08:11:47;34.50;29.10
81210;DHT22;70685;52.496;13.420;2023-07-24T08:14:13;33.80;29.70
81210;DHT22;70685;52.496;13.420;2023-07-24T08:16:38;33.20;30.60
81210;DHT22;70685;52.496;13.420;2023-07-24T08:19:08;33.00;30.70
81210;DHT22;70685;52.496;13.420;2023-07-24T08:21:36;33.10;30.80
81210;DHT22;70685;52.496;13.420;2023-07-24T08:24:04;34.00;30.00
81210;DHT22;70685;52.496;13.420;2023-07-24T08:26:32;35.40;29.00
81210;DHT22;70685;52.496;13.420;2023-07-24T08:29:00;36.30;27.50
81210;DHT22;70685;52.496;13.420;2023-07-24T08:31:29;36.70;26.90
81210;DHT22;70685;52.496;13.420;2023-07-24T08:33:55;36.80;27.10
81210;DHT22;70685;52.496;13.420;2023-07-24T08:36:23;36.80;26.60
81210;DHT22;70685;52.496;13.420;2023-07-24T08:38:49;36.30;27.00
81210;DHT22;70685;52.496;13.420;2023-07-24T08:41:15;34.70;28.20
81210;DHT22;70685;52.496;13.420;2023-07-24T08:43:42;33.60;29.50
81210;DHT22;70685;52.496;13.420;2023-07-24T08:46:09;32.50;31.90
81210;DHT22;70685;52.496;13.420;2023-07-24T08:48:39;31.80;32.80
81210;DHT22;70685;52.496;13.420;2023-07-24T08:51:07;31.10;34.20
81210;DHT22;70685;52.496;13.420;2023-07-24T08:53:34;30.40;35.50
81210;DHT22;70685;52.496;13.420;2023-07-24T08:56:05;30.60;36.40
81210;DHT22;70685;52.496;13.420;2023-07-24T08:58:33;31.30;34.40
81210;DHT22;70685;52.496;13.420;2023-07-24T09:01:03;32.30;33.10
81210;DHT22;70685;52.496;13.420;2023-07-24T09:03:31;32.50;32.10
81210;DHT22;70685;52.496;13.420;2023-07-24T09:05:57;32.30;32.00
81210;DHT22;70685;52.496;13.420;2023-07-24T09:08:33;32.30;32.40
81210;DHT22;70685;52.496;13.420;2023-07-24T09:11:00;32.70;32.00
81210;DHT22;70685;52.496;13.420;2023-07-24T09:13:27;32.20;32.50
81210;DHT22;70685;52.496;13.420;2023-07-24T09:15:53;32.00;33.10
81210;DHT22;70685;52.496;13.420;2023-07-24T09:18:19;31.60;33.70
81210;DHT22;70685;52.496;13.420;2023-07-24T09:20:48;31.30;33.80
81210;DHT22;70685;52.496;13.420;2023-07-24T09:23:14;30.80;34.50
81210;DHT22;70685;52.496;13.420;2023-07-24T09:25:42;30.80;35.00
81210;DHT22;70685;52.496;13.420;2023-07-24T09:28:18;31.50;33.60
81210;DHT22;70685;52.496;13.420;2023-07-24T09:30:55;31.80;32.80
81210;DHT22;70685;52.496;13.420;2023-07-24T09:33:42;31.80;33.00
81210;DHT22;70685;52.496;13.420;2023-07-24T09:36:09;31.90;32.80
81210;DHT22;70685;52.496;13.420;2023-07-24T09:38:38;32.50;32.10
81210;DHT22;70685;52.496;13.420;2023-07-24T09:41:04;33.20;31.30
81210;DHT22;70685;52.496;13.420;2023-07-24T09:43:31;33.40;30.70
81210;DHT22;70685;52.496;13.420;2023-07-24T09:45:57;32.70;31.10
81210;DHT22;70685;52.496;13.420;2023-07-24T09:48:26;32.40;31.90
81210;DHT22;70685;52.496;13.420;2023-07-24T09:50:56;32.50;32.10
81210;DHT22;70685;52.496;13.420;2023-07-24T09:54:10;33.10;31.40
81210;DHT22;70685;52.496;13.420;2023-07-24T09:56:38;33.10;31.00
81210;DHT22;70685;52.496;13.420;2023-07-24T09:59:05;33.00;31.70
81210;DHT22;70685;52.496;13.420;2023-07-24T10:01:31;33.40;30.60
81210;DHT22;70685;52.496;13.420;2023-07-24T10:03:59;34.00;30.10
81210;DHT22;70685;52.496;13.420;2023-07-24T10:16:52;35.20;28.60
81210;DHT22;70685;52.496;13.420;2023-07-24T10:19:21;34.40;29.00
81210;DHT22;70685;52.496;13.420;2023-07-24T10:21:51;34.30;28.60
81210;DHT22;70685;52.496;13.420;2023-07-24T10:24:17;34.40;28.90
81210;DHT22;70685;52.496;13.420;2023-07-24T10:26:45;34.70;28.80
81210;DHT22;70685;52.496;13.420;2023-07-24T10:29:11;35.20;28.50
81210;DHT22;70685;52.496;13.420;2023-07-24T10:31:39;35.50;28.40
81210;DHT22;70685;52.496;13.420;2023-07-24T10:34:08;36.10;27.80
81210;DHT22;70685;52.496;13.420;2023-07-24T10:36:36;36.50;27.00
81210;DHT22;70685;52.496;13.420;2023-07-24T10:39:02;36.40;26.80
81210;DHT22;70685;52.496;13.420;2023-07-24T10:41:40;36.00;27.00
81210;DHT22;70685;52.496;13.420;2023-07-24T10:44:05;34.90;27.40
81210;DHT22;70685;52.496;13.420;2023-07-24T10:46:41;34.10;28.60
81210;DHT22;70685;52.496;13.420;2023-07-24T10:49:11;33.50;29.00
81210;DHT22;70685;52.496;13.420;2023-07-24T10:51:40;33.20;29.10
81210;DHT22;70685;52.496;13.420;2023-07-24T10:54:07;33.00;30.00
81210;DHT22;70685;52.496;13.420;2023-07-24T10:56:33;33.50;29.40
81210;DHT22;70685;52.496;13.420;2023-07-24T10:59:04;33.60;28.90
81210;DHT22;70685;52.496;13.420;2023-07-24T11:01:33;33.90;28.40
81210;DHT22;70685;52.496;13.420;2023-07-24T11:03:59;34.30;28.00
81210;DHT22;70685;52.496;13.420;2023-07-24T11:06:25;34.40;27.70
81210;DHT22;70685;52.496;13.420;2023-07-24T11:08:52;34.10;27.70
81210;DHT22;70685;52.496;13.420;2023-07-24T11:11:18;33.70;28.20
81210;DHT22;70685;52.496;13.420;2023-07-24T11:13:44;33.50;28.50
81210;DHT22;70685;52.496;13.420;2023-07-24T11:16:14;33.00;28.80
81210;DHT22;70685;52.496;13.420;2023-07-24T11:18:46;33.50;28.70
81210;DHT22;70685;52.496;13.420;2023-07-24T11:21:15;33.20;28.80
81210;DHT22;70685;52.496;13.420;2023-07-24T11:23:46;33.00;29.20
81210;DHT22;70685;52.496;13.420;2023-07-24T11:26:12;33.40;29.00
81210;DHT22;70685;52.496;13.420;2023-07-24T11:28:43;33.10;28.80
81210;DHT22;70685;52.496;13.420;2023-07-24T11:31:09;32.70;29.30
81210;DHT22;70685;52.496;13.420;2023-07-24T11:33:35;32.10;30.00
81210;DHT22;70685;52.496;13.420;2023-07-24T11:36:01;32.10;30.10
81210;DHT22;70685;52.496;13.420;2023-07-24T11:38:27;31.90;30.50
81210;DHT22;70685;52.496;13.420;2023-07-24T11:40:55;31.40;31.20
81210;DHT22;70685;52.496;13.420;2023-07-24T11:43:23;30.90;32.00
81210;DHT22;70685;52.496;13.420;2023-07-24T11:45:50;30.60;32.70
81210;DHT22;70685;52.496;13.420;2023-07-24T11:48:23;30.60;32.30
81210;DHT22;70685;52.496;13.420;2023-07-24T11:50:53;30.60;32.50
81210;DHT22;70685;52.496;13.420;2023-07-24T11:53:32;30.90;32.30
81210;DHT22;70685;52.496;13.420;2023-07-24T11:55:59;30.90;31.90
81210;DHT22;70685;52.496;13.420;2023-07-24T11:58:28;30.80;32.40
81210;DHT22;70685;52.496;13.420;2023-07-24T12:00:59;30.60;32.50
81210;DHT22;70685;52.496;13.420;2023-07-24T12:03:26;30.60;32.50
81210;DHT22;70685;52.496;13.420;2023-07-24T12:05:53;30.70;32.20
81210;DHT22;70685;52.496;13.420;2023-07-24T12:08:31;30.40;32.60
81210;DHT22;70685;52.496;13.420;2023-07-24T12:10:58;30.30;33.40
81210;DHT22;70685;52.496;13.420;2023-07-24T12:13:23;30.20;33.00
81210;DHT22;70685;52.496;13.420;2023-07-24T12:15:49;29.80;33.50
81210;DHT22;70685;52.496;13.420;2023-07-24T12:18:15;29.50;34.00
81210;DHT22;70685;52.496;13.420;2023-07-24T12:20:40;29.40;33.90
81210;DHT22;70685;52.496;13.420;2023-07-24T12:23:09;29.20;34.60
81210;DHT22;70685;52.496;13.420;2023-07-24T12:25:35;28.80;35.50
81210;DHT22;70685;52.496;13.420;2023-07-24T12:28:02;28.40;36.10
81210;DHT22;70685;52.496;13.420;2023-07-24T12:30:30;27.90;38.80
81210;DHT22;70685;52.496;13.420;2023-07-24T12:32:56;27.50;40.20
81210;DHT22;70685;52.496;13.420;2023-07-24T12:35:22;27.30;41.50
81210;DHT22;70685;52.496;13.420;2023-07-24T12:37:49;27.00;42.70
81210;DHT22;70685;52.496;13.420;2023-07-24T12:40:15;26.80;43.40
81210;DHT22;70685;52.496;13.420;2023-07-24T12:42:43;26.60;43.90
81210;DHT22;70685;52.496;13.420;2023-07-24T12:45:11;26.50;44.50
81210;DHT22;70685;52.496;13.420;2023-07-24T12:47:37;26.40;45.40
81210;DHT22;70685;52.496;13.420;2023-07-24T12:50:02;26.20;46.70
81210;DHT22;70685;52.496;13.420;2023-07-24T12:52:29;26.30;47.00
81210;DHT22;70685;52.496;13.420;2023-07-24T12:54:57;26.90;45.80
81210;DHT22;70685;52.496;13.420;2023-07-24T12:57:24;27.30;45.00
81210;DHT22;70685;52.496;13.420;2023-07-24T12:59:52;27.40;44.60
81210;DHT22;70685;52.496;13.420;2023-07-24T13:02:20;27.50;44.40
81210;DHT22;70685;52.496;13.420;2023-07-24T13:04:47;27.60;44.40
81210;DHT22;70685;52.496;13.420;2023-07-24T13:07:13;27.50;44.60
81210;DHT22;70685;52.496;13.420;2023-07-24T13:09:39;27.30;44.70
81210;DHT22;70685;52.496;13.420;2023-07-24T13:12:07;27.00;46.90
81210;DHT22;70685;52.496;13.420;2023-07-24T13:14:35;26.70;47.10
81210;DHT22;70685;52.496;13.420;2023-07-24T13:17:01;26.30;47.70
81210;DHT22;70685;52.496;13.420;2023-07-24T13:19:29;26.00;49.70
81210;DHT22;70685;52.496;13.420;2023-07-24T13:21:54;25.90;50.00
81210;DHT22;70685;52.496;13.420;2023-07-24T13:24:20;26.00;49.10
81210;DHT22;70685;52.496;13.420;2023-07-24T13:26:46;26.20;48.30
81210;DHT22;70685;52.496;13.420;2023-07-24T13:29:11;26.60;47.50
81210;DHT22;70685;52.496;13.420;2023-07-24T13:31:37;26.90;46.70
81210;DHT22;70685;52.496;13.420;2023-07-24T13:34:06;27.20;46.00
81210;DHT22;70685;52.496;13.420;2023-07-24T13:36:31;27.50;45.60
81210;DHT22;70685;52.496;13.420;2023-07-24T13:38:57;27.70;44.80
81210;DHT22;70685;52.496;13.420;2023-07-24T13:41:25;28.20;45.40
81210;DHT22;70685;52.496;13.420;2023-07-24T13:43:55;28.90;43.30
81210;DHT22;70685;52.496;13.420;2023-07-24T13:46:21;29.80;42.00
81210;DHT22;70685;52.496;13.420;2023-07-24T13:48:46;30.80;39.80
81210;DHT22;70685;52.496;13.420;2023-07-24T13:51:14;31.60;38.40
81210;DHT22;70685;52.496;13.420;2023-07-24T13:53:40;31.90;37.30
81210;DHT22;70685;52.496;13.420;2023-07-24T13:56:05;32.00;37.20
81210;DHT22;70685;52.496;13.420;2023-07-24T13:58:31;32.20;37.00
81210;DHT22;70685;52.496;13.420;2023-07-24T14:01:00;32.00;37.00
81210;DHT22;70685;52.496;13.420;2023-07-24T14:03:25;31.90;37.30
81210;DHT22;70685;52.496;13.420;2023-07-24T14:05:54;31.70;37.50
81210;DHT22;70685;52.496;13.420;2023-07-24T14:08:20;31.40;38.30
81210;DHT22;70685;52.496;13.420;2023-07-24T14:10:48;31.10;38.90
81210;DHT22;70685;52.496;13.420;2023-07-24T14:13:14;30.70;39.60
81210;DHT22;70685;52.496;13.420;2023-07-24T14:15:42;30.20;40.60
81210;DHT22;70685;52.496;13.420;2023-07-24T14:18:10;29.80;41.90
81210;DHT22;70685;52.496;13.420;2023-07-24T14:20:36;29.50;42.70
81210;DHT22;70685;52.496;13.420;2023-07-24T14:23:02;29.30;43.10
81210;DHT22;70685;52.496;13.420;2023-07-24T14:25:28;29.30;43.20
81210;DHT22;70685;52.496;13.420;2023-07-24T14:27:54;29.60;42.70
81210;DHT22;70685;52.496;13.420;2023-07-24T14:30:19;29.90;42.40
81210;DHT22;70685;52.496;13.420;2023-07-24T14:32:45;29.90;42.50
81210;DHT22;70685;52.496;13.420;2023-07-24T14:35:13;29.70;42.70
81210;DHT22;70685;52.496;13.420;2023-07-24T14:37:38;29.50;43.20
81210;DHT22;70685;52.496;13.420;2023-07-24T14:40:05;29.20;44.00
81210;DHT22;70685;52.496;13.420;2023-07-24T14:42:31;28.90;44.10
81210;DHT22;70685;52.496;13.420;2023-07-24T14:44:56;28.70;44.40
81210;DHT22;70685;52.496;13.420;2023-07-24T14:47:29;28.60;44.90
81210;DHT22;70685;52.496;13.420;2023-07-24T14:49:56;28.40;45.20
81210;DHT22;70685;52.496;13.420;2023-07-24T14:52:22;28.20;45.40
81210;DHT22;70685;52.496;13.420;2023-07-24T14:54:48;28.00;46.30
81210;DHT22;70685;52.496;13.420;2023-07-24T14:57:16;27.70;45.10
81210;DHT22;70685;52.496;13.420;2023-07-24T14:59:41;27.50;44.00
81210;DHT22;70685;52.496;13.420;2023-07-24T15:02:07;27.30;43.80
81210;DHT22;70685;52.496;13.420;2023-07-24T15:04:33;27.20;43.50
81210;DHT22;70685;52.496;13.420;2023-07-24T15:07:01;27.20;43.10
81210;DHT22;70685;52.496;13.420;2023-07-24T15:09:27;27.20;43.10
81210;DHT22;70685;52.496;13.420;2023-07-24T15:11:57;27.10;43.90
81210;DHT22;70685;52.496;13.420;2023-07-24T15:14:27;27.20;43.10
81210;DHT22;70685;52.496;13.420;2023-07-24T15:16:53;27.30;43.10
81210;DHT22;70685;52.496;13.420;2023-07-24T15:19:18;27.40;43.10
81210;DHT22;70685;52.496;13.420;2023-07-24T15:21:44;27.60;42.80
81210;DHT22;70685;52.496;13.420;2023-07-24T15:24:12;27.70;42.60
81210;DHT22;70685;52.496;13.420;2023-07-24T15:26:37;28.00;42.10
81210;DHT22;70685;52.496;13.420;2023-07-24T15:29:05;28.20;41.50